sensor_id;sensor_type;location;lat;lon;timestamp;pressure;altitude;pressure_sealevel;temperature;humidity
84055;BME280;74141;51.504;7.122;2024-02-21T00:01:25;101674.06;;;9.25;86.21
84055;BME280;74141;51.504;7.122;2024-02-21T00:03:51;101680.13;;;9.29;87.35
84055;BME280;74141;51.504;7.122;2024-02-21T00:06:16;101668.84;;;9.22;87.29
84055;BME280;74141;51.504;7.122;2024-02-21T00:08:41;101675.84;;;9.23;87.95
84055;BME280;74141;51.504;7.122;2024-02-21T00:11:06;101654.75;;;9.26;86.78
84055;BME280;74141;51.504;7.122;2024-02-21T00:13:32;101661.81;;;9.24;87.71
84055;BME280;74141;51.504;7.122;2024-02-21T00:15:57;101639.94;;;9.22;87.65
84055;BME280;74141;51.504;7.122;2024-02-21T00:18:23;101639.97;;;9.21;87.78
84055;BME280;74141;51.504;7.122;2024-02-21T00:20:48;101647.84;;;9.21;87.71
84055;BME280;74141;51.504;7.122;2024-02-21T00:23:13;101644.28;;;9.23;87.13
84055;BME280;74141;51.504;7.122;2024-02-21T00:25:39;101637.38;;;9.19;86.63
84055;BME280;74141;51.504;7.122;2024-02-21T00:28:04;101623.31;;;9.20;86.93
84055;BME280;74141;51.504;7.122;2024-02-21T00:30:31;101623.38;;;9.17;87.06
84055;BME280;74141;51.504;7.122;2024-02-21T00:32:56;101621.59;;;9.19;87.24
84055;BME280;74141;51.504;7.122;2024-02-21T00:35:21;101615.50;;;9.16;87.38
84055;BME280;74141;51.504;7.122;2024-02-21T00:37:46;101617.25;;;9.17;88.16
84055;BME280;74141;51.504;7.122;2024-02-21T00:40:12;101619.81;;;9.21;87.63
84055;BME280;74141;51.504;7.122;2024-02-21T00:42:37;101610.94;;;9.25;86.62
84055;BME280;74141;51.504;7.122;2024-02-21T00:45:03;101620.59;;;9.25;86.35
84055;BME280;74141;51.504;7.122;2024-02-21T00:47:28;101620.66;;;9.22;87.23
84055;BME280;74141;51.504;7.122;2024-02-21T00:49:53;101607.47;;;9.23;86.24
84055;BME280;74141;51.504;7.122;2024-02-21T00:52:19;101603.13;;;9.22;86.55
84055;BME280;74141;51.504;7.122;2024-02-21T00:54:44;101602.16;;;9.26;86.52
84055;BME280;74141;51.504;7.122;2024-02-21T00:57:09;101589.91;;;9.25;87.16
84055;BME280;74141;51.504;7.122;2024-02-21T00:59:34;101596.06;;;9.26;87.49
84055;BME280;74141;51.504;7.122;2024-02-21T01:02:00;101589.91;;;9.25;87.33
84055;BME280;74141;51.504;7.122;2024-02-21T01:04:25;101586.38;;;9.26;87.44
84055;BME280;74141;51.504;7.122;2024-02-21T01:06:50;101579.44;;;9.24;87.06
84055;BME280;74141;51.504;7.122;2024-02-21T01:09:16;101571.56;;;9.22;86.83
84055;BME280;74141;51.504;7.122;2024-02-21T01:11:41;101570.59;;;9.26;86.82
84055;BME280;74141;51.504;7.122;2024-02-21T01:14:06;101573.25;;;9.25;86.51
84055;BME280;74141;51.504;7.122;2024-02-21T01:16:31;101571.56;;;9.22;86.54
84055;BME280;74141;51.504;7.122;2024-02-21T01:18:57;101569.84;;;9.21;86.91
84055;BME280;74141;51.504;7.122;2024-02-21T01:21:22;101559.31;;;9.23;86.81
84055;BME280;74141;51.504;7.122;2024-02-21T01:23:48;101568.94;;;9.22;86.24
84055;BME280;74141;51.504;7.122;2024-02-21T01:26:13;101551.44;;;9.21;86.46
84055;BME280;74141;51.504;7.122;2024-02-21T01:28:41;101535.66;;;9.21;87.22
84055;BME280;74141;51.504;7.122;2024-02-21T01:31:06;101531.31;;;9.19;87.00
84055;BME280;74141;51.504;7.122;2024-02-21T01:33:32;101520.91;;;9.14;87.15
84055;BME280;74141;51.504;7.122;2024-02-21T01:36:03;101523.59;;;9.11;87.86
84055;BME280;74141;51.504;7.122;2024-02-21T01:38:29;101530.72;;;9.06;87.84
84055;BME280;74141;51.504;7.122;2024-02-21T01:40:55;101531.50;;;9.10;88.08
84055;BME280;74141;51.504;7.122;2024-02-21T01:43:20;101523.75;;;9.05;87.30
84055;BME280;74141;51.504;7.122;2024-02-21T01:45:50;101516.72;;;9.06;87.22
84055;BME280;74141;51.504;7.122;2024-02-21T01:48:17;101526.44;;;9.02;87.38
84055;BME280;74141;51.504;7.122;2024-02-21T01:50:44;101523.03;;;8.97;88.15
84055;BME280;74141;51.504;7.122;2024-02-21T01:53:10;101501.28;;;8.89;87.75
84055;BME280;74141;51.504;7.122;2024-02-21T01:55:35;101526.50;;;8.99;88.57
84055;BME280;74141;51.504;7.122;2024-02-21T01:58:01;101510.63;;;9.04;87.93
84055;BME280;74141;51.504;7.122;2024-02-21T02:00:27;101502.63;;;9.08;87.13
84055;BME280;74141;51.504;7.122;2024-02-21T02:02:53;101514.00;;;9.09;87.57
84055;BME280;74141;51.504;7.122;2024-02-21T02:05:19;101512.28;;;9.08;88.35
84055;BME280;74141;51.504;7.122;2024-02-21T02:07:46;101514.13;;;9.03;88.02
84055;BME280;74141;51.504;7.122;2024-02-21T02:10:14;101514.97;;;9.06;87.46
84055;BME280;74141;51.504;7.122;2024-02-21T02:12:39;101512.19;;;9.12;88.23
84055;BME280;74141;51.504;7.122;2024-02-21T02:15:14;101512.19;;;9.12;87.92
84055;BME280;74141;51.504;7.122;2024-02-21T02:17:39;101499.13;;;9.09;87.07
84055;BME280;74141;51.504;7.122;2024-02-21T02:20:13;101484.25;;;9.07;87.28
84055;BME280;74141;51.504;7.122;2024-02-21T02:22:40;101480.03;;;9.00;87.47
84055;BME280;74141;51.504;7.122;2024-02-21T02:25:14;101478.34;;;8.97;88.60
84055;BME280;74141;51.504;7.122;2024-02-21T02:27:43;101471.34;;;8.98;87.88
84055;BME280;74141;51.504;7.122;2024-02-21T02:30:11;101479.19;;;8.99;88.08
84055;BME280;74141;51.504;7.122;2024-02-21T02:32:37;101463.50;;;8.95;87.69
84055;BME280;74141;51.504;7.122;2024-02-21T02:35:11;101452.13;;;8.94;88.20
84055;BME280;74141;51.504;7.122;2024-02-21T02:37:37;101453.22;;;8.84;88.11
84055;BME280;74141;51.504;7.122;2024-02-21T02:40:13;101436.69;;;8.79;88.49
84055;BME280;74141;51.504;7.122;2024-02-21T02:42:38;101434.25;;;8.70;89.33
84055;BME280;74141;51.504;7.122;2024-02-21T02:45:13;101434.28;;;8.67;88.99
84055;BME280;74141;51.504;7.122;2024-02-21T02:47:39;101429.88;;;8.69;89.02
84055;BME280;74141;51.504;7.122;2024-02-21T02:50:11;101429.09;;;8.64;90.21
84055;BME280;74141;51.504;7.122;2024-02-21T02:52:36;101431.78;;;8.61;90.23
84055;BME280;74141;51.504;7.122;2024-02-21T02:55:13;101436.22;;;8.59;90.44
84055;BME280;74141;51.504;7.122;2024-02-21T02:57:38;101435.19;;;8.66;89.86
84055;BME280;74141;51.504;7.122;2024-02-21T03:00:05;101435.19;;;8.66;89.61
84055;BME280;74141;51.504;7.122;2024-02-21T03:02:32;101439.47;;;8.72;89.28
84055;BME280;74141;51.504;7.122;2024-02-21T03:04:57;101442.84;;;8.78;89.02
84055;BME280;74141;51.504;7.122;2024-02-21T03:07:24;101445.41;;;8.81;89.51
84055;BME280;74141;51.504;7.122;2024-02-21T03:09:49;101434.03;;;8.81;89.39
84055;BME280;74141;51.504;7.122;2024-02-21T03:12:15;101427.75;;;8.86;88.65
84055;BME280;74141;51.504;7.122;2024-02-21T03:14:44;101438.25;;;8.88;89.18
84055;BME280;74141;51.504;7.122;2024-02-21T03:17:09;101424.06;;;8.96;88.66
84055;BME280;74141;51.504;7.122;2024-02-21T03:19:34;101419.75;;;8.92;88.74
84055;BME280;74141;51.504;7.122;2024-02-21T03:22:00;101416.19;;;8.96;88.99
84055;BME280;74141;51.504;7.122;2024-02-21T03:24:25;101410.13;;;8.93;89.21
84055;BME280;74141;51.504;7.122;2024-02-21T03:26:50;101408.22;;;8.99;88.44
84055;BME280;74141;51.504;7.122;2024-02-21T03:29:16;101402.97;;;8.99;87.75
84055;BME280;74141;51.504;7.122;2024-02-21T03:31:42;101403.03;;;8.96;88.78
84055;BME280;74141;51.504;7.122;2024-02-21T03:34:07;101406.53;;;8.95;88.28
84055;BME280;74141;51.504;7.122;2024-02-21T03:36:33;101401.34;;;8.92;88.71
84055;BME280;74141;51.504;7.122;2024-02-21T03:38:58;101388.28;;;8.89;88.21
84055;BME280;74141;51.504;7.122;2024-02-21T03:41:24;101394.44;;;8.88;88.10
84055;BME280;74141;51.504;7.122;2024-02-21T03:43:49;101382.19;;;8.89;87.74
84055;BME280;74141;51.504;7.122;2024-02-21T03:46:15;101393.50;;;8.91;88.05
84055;BME280;74141;51.504;7.122;2024-02-21T03:48:40;101401.34;;;8.92;87.71
84055;BME280;74141;51.504;7.122;2024-02-21T03:51:05;101405.66;;;8.96;88.74
84055;BME280;74141;51.504;7.122;2024-02-21T03:53:31;101409.94;;;9.00;88.29
84055;BME280;74141;51.504;7.122;2024-02-21T03:55:56;101408.16;;;9.02;87.20
84055;BME280;74141;51.504;7.122;2024-02-21T03:58:22;101415.16;;;9.03;87.67
84055;BME280;74141;51.504;7.122;2024-02-21T04:00:47;101414.34;;;9.00;87.26
84055;BME280;74141;51.504;7.122;2024-02-21T04:03:12;101409.88;;;9.03;87.20
84055;BME280;74141;51.504;7.122;2024-02-21T04:05:38;101423.94;;;9.02;87.55
84055;BME280;74141;51.504;7.122;2024-02-21T04:08:04;101429.16;;;9.04;88.59
84055;BME280;74141;51.504;7.122;2024-02-21T04:10:30;101416.84;;;9.04;87.76
84055;BME280;74141;51.504;7.122;2024-02-21T04:12:55;101415.97;;;9.05;87.55
84055;BME280;74141;51.504;7.122;2024-02-21T04:15:20;101408.91;;;9.07;87.69
84055;BME280;74141;51.504;7.122;2024-02-21T04:17:46;101411.50;;;9.09;87.33
84055;BME280;74141;51.504;7.122;2024-02-21T04:20:15;101409.75;;;9.09;86.57
84055;BME280;74141;51.504;7.122;2024-02-21T04:22:43;101407.94;;;9.11;87.19
84055;BME280;74141;51.504;7.122;2024-02-21T04:25:08;101408.78;;;9.13;87.55
84055;BME280;74141;51.504;7.122;2024-02-21T04:27:34;101409.72;;;9.11;86.92
84055;BME280;74141;51.504;7.122;2024-02-21T04:29:59;101400.06;;;9.10;87.58
84055;BME280;74141;51.504;7.122;2024-02-21T04:32:24;101401.84;;;9.11;86.68
84055;BME280;74141;51.504;7.122;2024-02-21T04:34:52;101400.03;;;9.11;87.17
84055;BME280;74141;51.504;7.122;2024-02-21T04:37:17;101399.16;;;9.12;87.38
84055;BME280;74141;51.504;7.122;2024-02-21T04:39:42;101400.97;;;9.10;86.62
84055;BME280;74141;51.504;7.122;2024-02-21T04:42:08;101394.03;;;9.06;86.20
84055;BME280;74141;51.504;7.122;2024-02-21T04:44:33;101388.78;;;9.06;87.07
84055;BME280;74141;51.504;7.122;2024-02-21T04:46:58;101381.81;;;9.05;86.50
84055;BME280;74141;51.504;7.122;2024-02-21T04:49:23;101382.69;;;9.04;86.14
84055;BME280;74141;51.504;7.122;2024-02-21T04:51:49;101376.47;;;9.08;86.34
84055;BME280;74141;51.504;7.122;2024-02-21T04:54:14;101373.03;;;9.06;85.59
84055;BME280;74141;51.504;7.122;2024-02-21T04:56:39;101370.44;;;9.05;85.48
84055;BME280;74141;51.504;7.122;2024-02-21T04:59:04;101376.47;;;9.08;85.64
84055;BME280;74141;51.504;7.122;2024-02-21T05:01:30;101365.88;;;9.11;86.29
84055;BME280;74141;51.504;7.122;2024-02-21T05:03:56;101373.75;;;9.11;85.81
84055;BME280;74141;51.504;7.122;2024-02-21T05:06:21;101369.34;;;9.13;85.50
84055;BME280;74141;51.504;7.122;2024-02-21T05:08:46;101377.19;;;9.15;84.60
84055;BME280;74141;51.504;7.122;2024-02-21T05:11:12;101378.97;;;9.13;85.16
84055;BME280;74141;51.504;7.122;2024-02-21T05:13:38;101381.53;;;9.16;84.45
84055;BME280;74141;51.504;7.122;2024-02-21T05:16:03;101363.19;;;9.14;84.43
84055;BME280;74141;51.504;7.122;2024-02-21T05:18:28;101371.06;;;9.14;84.45
84055;BME280;74141;51.504;7.122;2024-02-21T05:20:54;101362.38;;;9.12;84.16
84055;BME280;74141;51.504;7.122;2024-02-21T05:23:19;101360.47;;;9.17;85.10
84055;BME280;74141;51.504;7.122;2024-02-21T05:25:44;101358.69;;;9.19;83.93
84055;BME280;74141;51.504;7.122;2024-02-21T05:28:10;101357.88;;;9.16;84.06
84055;BME280;74141;51.504;7.122;2024-02-21T05:30:35;101355.22;;;9.17;83.90
84055;BME280;74141;51.504;7.122;2024-02-21T05:33:04;101364.00;;;9.16;84.61
84055;BME280;74141;51.504;7.122;2024-02-21T05:35:30;101363.09;;;9.17;84.34
84055;BME280;74141;51.504;7.122;2024-02-21T05:37:55;101348.16;;;9.19;83.72
84055;BME280;74141;51.504;7.122;2024-02-21T05:40:20;101342.94;;;9.18;83.93
84055;BME280;74141;51.504;7.122;2024-02-21T05:42:46;101337.78;;;9.13;83.83
84055;BME280;74141;51.504;7.122;2024-02-21T05:45:11;101332.47;;;9.16;83.61
84055;BME280;74141;51.504;7.122;2024-02-21T05:47:36;101335.16;;;9.13;84.27
84055;BME280;74141;51.504;7.122;2024-02-21T05:50:01;101336.94;;;9.13;84.79
84055;BME280;74141;51.504;7.122;2024-02-21T05:52:27;101337.78;;;9.13;84.04
84055;BME280;74141;51.504;7.122;2024-02-21T05:54:52;101338.75;;;9.11;84.53
84055;BME280;74141;51.504;7.122;2024-02-21T05:57:18;101339.50;;;9.14;83.77
84055;BME280;74141;51.504;7.122;2024-02-21T05:59:43;101322.81;;;9.17;83.88
84055;BME280;74141;51.504;7.122;2024-02-21T06:02:09;101329.88;;;9.15;84.57
84055;BME280;74141;51.504;7.122;2024-02-21T06:04:34;101321.09;;;9.16;84.28
84055;BME280;74141;51.504;7.122;2024-02-21T06:07:00;101321.09;;;9.16;84.30
84055;BME280;74141;51.504;7.122;2024-02-21T06:09:25;101320.09;;;9.21;83.25
84055;BME280;74141;51.504;7.122;2024-02-21T06:11:51;101314.84;;;9.21;82.84
84055;BME280;74141;51.504;7.122;2024-02-21T06:14:16;101307.72;;;9.25;83.37
84055;BME280;74141;51.504;7.122;2024-02-21T06:16:43;101302.56;;;9.20;83.07
84055;BME280;74141;51.504;7.122;2024-02-21T06:19:08;101293.75;;;9.23;83.64
84055;BME280;74141;51.504;7.122;2024-02-21T06:21:34;101294.66;;;9.22;83.77
84055;BME280;74141;51.504;7.122;2024-02-21T06:23:59;101286.00;;;9.18;83.45
84055;BME280;74141;51.504;7.122;2024-02-21T06:26:25;101278.88;;;9.22;82.84
84055;BME280;74141;51.504;7.122;2024-02-21T06:28:50;101278.00;;;9.23;83.37
84055;BME280;74141;51.504;7.122;2024-02-21T06:31:15;101284.13;;;9.22;82.60
84055;BME280;74141;51.504;7.122;2024-02-21T06:33:41;101281.53;;;9.20;82.71
84055;BME280;74141;51.504;7.122;2024-02-21T06:36:07;101271.91;;;9.21;82.98
84055;BME280;74141;51.504;7.122;2024-02-21T06:38:32;101267.50;;;9.21;82.63
84055;BME280;74141;51.504;7.122;2024-02-21T06:40:59;101263.97;;;9.22;82.37
84055;BME280;74141;51.504;7.122;2024-02-21T06:43:25;101261.41;;;9.19;82.73
84055;BME280;74141;51.504;7.122;2024-02-21T06:45:50;101263.09;;;9.22;83.09
84055;BME280;74141;51.504;7.122;2024-02-21T06:48:17;101250.94;;;9.18;83.40
84055;BME280;74141;51.504;7.122;2024-02-21T06:50:43;101256.00;;;9.25;82.72
84055;BME280;74141;51.504;7.122;2024-02-21T06:53:08;101262.09;;;9.27;83.02
84055;BME280;74141;51.504;7.122;2024-02-21T06:55:34;101263.84;;;9.27;83.07
84055;BME280;74141;51.504;7.122;2024-02-21T06:57:59;101263.91;;;9.25;83.21
84055;BME280;74141;51.504;7.122;2024-02-21T07:00:24;101258.56;;;9.28;82.40
84055;BME280;74141;51.504;7.122;2024-02-21T07:02:51;101273.34;;;9.32;82.69
84055;BME280;74141;51.504;7.122;2024-02-21T07:05:16;101267.28;;;9.30;82.32
84055;BME280;74141;51.504;7.122;2024-02-21T07:07:42;101273.34;;;9.32;82.83
84055;BME280;74141;51.504;7.122;2024-02-21T07:10:07;101274.19;;;9.34;82.96
84055;BME280;74141;51.504;7.122;2024-02-21T07:12:33;101275.91;;;9.35;82.52
84055;BME280;74141;51.504;7.122;2024-02-21T07:14:58;101271.56;;;9.34;82.52
84055;BME280;74141;51.504;7.122;2024-02-21T07:17:23;101267.09;;;9.36;82.47
84055;BME280;74141;51.504;7.122;2024-02-21T07:19:49;101272.31;;;9.38;81.85
84055;BME280;74141;51.504;7.122;2024-02-21T07:22:14;101264.38;;;9.39;82.54
84055;BME280;74141;51.504;7.122;2024-02-21T07:24:39;101263.44;;;9.43;81.85
84055;BME280;74141;51.504;7.122;2024-02-21T07:27:05;101261.69;;;9.42;82.08
84055;BME280;74141;51.504;7.122;2024-02-21T07:29:30;101266.03;;;9.45;80.36
84055;BME280;74141;51.504;7.122;2024-02-21T07:31:56;101258.84;;;9.50;80.93
84055;BME280;74141;51.504;7.122;2024-02-21T07:34:21;101252.63;;;9.54;81.51
84055;BME280;74141;51.504;7.122;2024-02-21T07:36:46;101255.28;;;9.52;80.74
84055;BME280;74141;51.504;7.122;2024-02-21T07:39:12;101251.66;;;9.56;80.31
84055;BME280;74141;51.504;7.122;2024-02-21T07:41:37;101256.06;;;9.56;80.80
84055;BME280;74141;51.504;7.122;2024-02-21T07:44:04;101244.50;;;9.63;80.60
84055;BME280;74141;51.504;7.122;2024-02-21T07:46:29;101248.88;;;9.62;79.93
84055;BME280;74141;51.504;7.122;2024-02-21T07:48:55;101247.03;;;9.66;80.15
84055;BME280;74141;51.504;7.122;2024-02-21T07:51:20;101252.16;;;9.70;79.88
84055;BME280;74141;51.504;7.122;2024-02-21T07:53:45;101243.53;;;9.65;79.35
84055;BME280;74141;51.504;7.122;2024-02-21T07:56:12;101236.44;;;9.67;79.52
84055;BME280;74141;51.504;7.122;2024-02-21T07:58:37;101228.34;;;9.75;80.58
84055;BME280;74141;51.504;7.122;2024-02-21T08:01:03;101228.25;;;9.78;79.81
84055;BME280;74141;51.504;7.122;2024-02-21T08:03:28;101227.34;;;9.80;79.00
84055;BME280;74141;51.504;7.122;2024-02-21T08:05:54;101222.88;;;9.82;78.73
84055;BME280;74141;51.504;7.122;2024-02-21T08:08:19;101221.09;;;9.83;78.74
84055;BME280;74141;51.504;7.122;2024-02-21T08:10:47;101211.28;;;9.89;79.25
84055;BME280;74141;51.504;7.122;2024-02-21T08:13:12;101216.63;;;9.86;79.82
84055;BME280;74141;51.504;7.122;2024-02-21T08:15:37;101203.47;;;9.86;78.99
84055;BME280;74141;51.504;7.122;2024-02-21T08:18:05;101200.72;;;9.91;78.63
84055;BME280;74141;51.504;7.122;2024-02-21T08:20:30;101205.16;;;9.89;78.99
84055;BME280;74141;51.504;7.122;2024-02-21T08:22:55;101192.81;;;9.91;79.02
84055;BME280;74141;51.504;7.122;2024-02-21T08:25:20;101194.53;;;9.92;79.45
84055;BME280;74141;51.504;7.122;2024-02-21T08:27:46;101195.25;;;9.97;78.39
84055;BME280;74141;51.504;7.122;2024-02-21T08:30:11;101181.22;;;9.96;78.96
84055;BME280;74141;51.504;7.122;2024-02-21T08:32:37;101187.97;;;10.06;78.48
84055;BME280;74141;51.504;7.122;2024-02-21T08:35:03;101176.53;;;10.07;77.86
84055;BME280;74141;51.504;7.122;2024-02-21T08:37:28;101172.97;;;10.10;77.62
84055;BME280;74141;51.504;7.122;2024-02-21T08:39:54;101178.94;;;10.15;77.62
84055;BME280;74141;51.504;7.122;2024-02-21T08:42:19;101165.03;;;10.11;77.41
84055;BME280;74141;51.504;7.122;2024-02-21T08:44:44;101165.81;;;10.13;77.45
84055;BME280;74141;51.504;7.122;2024-02-21T08:47:10;101167.25;;;10.25;77.81
84055;BME280;74141;51.504;7.122;2024-02-21T08:49:35;101162.75;;;10.27;77.97
84055;BME280;74141;51.504;7.122;2024-02-21T08:52:01;101169.81;;;10.27;78.30
84055;BME280;74141;51.504;7.122;2024-02-21T08:54:27;101171.53;;;10.27;77.94
84055;BME280;74141;51.504;7.122;2024-02-21T08:56:54;101154.66;;;10.33;78.17
84055;BME280;74141;51.504;7.122;2024-02-21T08:59:19;101170.06;;;10.19;77.96
84055;BME280;74141;51.504;7.122;2024-02-21T09:01:44;101155.19;;;10.16;78.38
84055;BME280;74141;51.504;7.122;2024-02-21T09:04:09;101149.78;;;10.21;78.68
84055;BME280;74141;51.504;7.122;2024-02-21T09:06:35;101154.03;;;10.27;77.85
84055;BME280;74141;51.504;7.122;2024-02-21T09:09:04;101142.88;;;10.45;77.40
84055;BME280;74141;51.504;7.122;2024-02-21T09:11:29;101148.44;;;10.36;77.49
84055;BME280;74141;51.504;7.122;2024-02-21T09:13:54;101143.69;;;10.20;78.03
84055;BME280;74141;51.504;7.122;2024-02-21T09:16:20;101142.13;;;10.13;77.61
84055;BME280;74141;51.504;7.122;2024-02-21T09:18:45;101145.72;;;10.11;78.66
84055;BME280;74141;51.504;7.122;2024-02-21T09:21:11;101149.50;;;10.01;78.69
84055;BME280;74141;51.504;7.122;2024-02-21T09:23:37;101136.44;;;9.98;78.05
84055;BME280;74141;51.504;7.122;2024-02-21T09:26:02;101137.41;;;9.95;78.34
84055;BME280;74141;51.504;7.122;2024-02-21T09:28:29;101148.03;;;9.92;78.68
84055;BME280;74141;51.504;7.122;2024-02-21T09:30:54;101134.69;;;9.97;77.90
84055;BME280;74141;51.504;7.122;2024-02-21T09:33:20;101116.22;;;9.98;77.61
84055;BME280;74141;51.504;7.122;2024-02-21T09:35:45;101127.50;;;10.03;78.56
84055;BME280;74141;51.504;7.122;2024-02-21T09:38:10;101122.38;;;9.99;77.65
84055;BME280;74141;51.504;7.122;2024-02-21T09:40:36;101114.38;;;10.02;77.28
84055;BME280;74141;51.504;7.122;2024-02-21T09:43:04;101112.81;;;9.96;77.08
84055;BME280;74141;51.504;7.122;2024-02-21T09:45:32;101109.06;;;10.03;77.60
84055;BME280;74141;51.504;7.122;2024-02-21T09:48:29;101115.25;;;10.02;76.66
84055;BME280;74141;51.504;7.122;2024-02-21T09:50:57;101113.44;;;10.03;77.29
84055;BME280;74141;51.504;7.122;2024-02-21T09:53:24;101114.03;;;10.14;76.80
84055;BME280;74141;51.504;7.122;2024-02-21T09:55:50;101116.38;;;10.23;76.35
84055;BME280;74141;51.504;7.122;2024-02-21T09:58:15;101113.47;;;10.32;76.71
84055;BME280;74141;51.504;7.122;2024-02-21T10:00:40;101114.06;;;10.40;76.64
84055;BME280;74141;51.504;7.122;2024-02-21T10:03:06;101113.06;;;10.44;76.49
84055;BME280;74141;51.504;7.122;2024-02-21T10:05:34;101107.41;;;10.56;76.36
84055;BME280;74141;51.504;7.122;2024-02-21T10:08:01;101110.63;;;10.64;75.55
84055;BME280;74141;51.504;7.122;2024-02-21T10:10:26;101108.84;;;10.39;75.24
84055;BME280;74141;51.504;7.122;2024-02-21T10:12:52;101111.75;;;10.57;75.74
84055;BME280;74141;51.504;7.122;2024-02-21T10:15:21;101108.47;;;10.49;75.30
84055;BME280;74141;51.504;7.122;2024-02-21T10:18:01;101107.44;;;10.55;75.04
84055;BME280;74141;51.504;7.122;2024-02-21T10:20:27;101098.31;;;10.65;75.67
84055;BME280;74141;51.504;7.122;2024-02-21T10:23:05;101083.19;;;10.70;75.05
84055;BME280;74141;51.504;7.122;2024-02-21T10:25:35;101084.00;;;10.72;75.52
84055;BME280;74141;51.504;7.122;2024-02-21T10:28:02;101090.88;;;10.76;74.85
84055;BME280;74141;51.504;7.122;2024-02-21T10:30:28;101084.88;;;10.72;75.02
84055;BME280;74141;51.504;7.122;2024-02-21T10:32:53;101084.53;;;10.83;74.94
84055;BME280;74141;51.504;7.122;2024-02-21T10:35:26;101088.09;;;10.80;73.88
84055;BME280;74141;51.504;7.122;2024-02-21T10:37:52;101078.63;;;10.75;74.24
84055;BME280;74141;51.504;7.122;2024-02-21T10:40:21;101073.38;;;10.75;74.54
84055;BME280;74141;51.504;7.122;2024-02-21T10:42:47;101071.44;;;10.80;74.13
84055;BME280;74141;51.504;7.122;2024-02-21T10:45:13;101062.09;;;10.70;74.55
84055;BME280;74141;51.504;7.122;2024-02-21T10:47:39;101065.47;;;10.75;74.00
84055;BME280;74141;51.504;7.122;2024-02-21T10:50:06;101054.09;;;10.73;73.87
84055;BME280;74141;51.504;7.122;2024-02-21T10:55:26;101040.59;;;10.82;72.92
84055;BME280;74141;51.504;7.122;2024-02-21T10:57:54;101030.66;;;10.90;72.05
84055;BME280;74141;51.504;7.122;2024-02-21T11:00:20;101027.22;;;10.88;72.67
84055;BME280;74141;51.504;7.122;2024-02-21T11:02:49;101019.91;;;10.96;71.69
84055;BME280;74141;51.504;7.122;2024-02-21T11:05:15;101007.28;;;11.04;71.18
84055;BME280;74141;51.504;7.122;2024-02-21T11:07:41;100994.97;;;11.04;71.34
84055;BME280;74141;51.504;7.122;2024-02-21T11:10:20;100974.97;;;11.22;71.13
84055;BME280;74141;51.504;7.122;2024-02-21T11:12:47;100975.06;;;11.19;70.36
84055;BME280;74141;51.504;7.122;2024-02-21T11:15:13;100967.81;;;11.25;70.37
84055;BME280;74141;51.504;7.122;2024-02-21T11:17:38;100964.41;;;11.22;70.14
84055;BME280;74141;51.504;7.122;2024-02-21T11:20:13;100950.28;;;11.23;70.12
84055;BME280;74141;51.504;7.122;2024-02-21T11:22:42;100947.88;;;11.40;70.19
84055;BME280;74141;51.504;7.122;2024-02-21T11:25:08;100941.56;;;11.44;69.76
84055;BME280;74141;51.504;7.122;2024-02-21T11:27:36;100927.31;;;11.48;69.76
84055;BME280;74141;51.504;7.122;2024-02-21T11:30:04;100914.13;;;11.48;69.61
84055;BME280;74141;51.504;7.122;2024-02-21T11:32:30;100902.41;;;11.55;69.01
84055;BME280;74141;51.504;7.122;2024-02-21T11:35:00;100892.31;;;11.66;68.52
84055;BME280;74141;51.504;7.122;2024-02-21T11:37:28;100892.44;;;11.63;67.91
84055;BME280;74141;51.504;7.122;2024-02-21T11:39:57;100878.03;;;11.71;68.49
84055;BME280;74141;51.504;7.122;2024-02-21T11:42:25;100868.63;;;11.64;68.10
84055;BME280;74141;51.504;7.122;2024-02-21T11:44:50;100864.50;;;11.99;67.56
84055;BME280;74141;51.504;7.122;2024-02-21T11:47:15;100871.50;;;12.00;67.49
84055;BME280;74141;51.504;7.122;2024-02-21T11:49:46;100864.88;;;11.90;67.25
84055;BME280;74141;51.504;7.122;2024-02-21T11:52:14;100860.38;;;11.72;67.80
84055;BME280;74141;51.504;7.122;2024-02-21T11:54:41;100847.84;;;11.77;67.53
84055;BME280;74141;51.504;7.122;2024-02-21T11:57:06;100827.38;;;11.62;68.14
84055;BME280;74141;51.504;7.122;2024-02-21T11:59:32;100820.41;;;11.81;67.33
84055;BME280;74141;51.504;7.122;2024-02-21T12:01:58;100803.44;;;11.66;67.40
84055;BME280;74141;51.504;7.122;2024-02-21T12:04:24;100788.34;;;11.70;66.73
84055;BME280;74141;51.504;7.122;2024-02-21T12:06:52;100788.59;;;11.84;66.08
84055;BME280;74141;51.504;7.122;2024-02-21T12:09:18;100792.50;;;11.75;66.37
84055;BME280;74141;51.504;7.122;2024-02-21T12:11:44;100785.94;;;11.84;65.80
84055;BME280;74141;51.504;7.122;2024-02-21T12:14:09;100783.84;;;11.92;66.03
84055;BME280;74141;51.504;7.122;2024-02-21T12:16:35;100768.91;;;12.11;64.96
84055;BME280;74141;51.504;7.122;2024-02-21T12:19:03;100760.19;;;12.09;64.74
84055;BME280;74141;51.504;7.122;2024-02-21T12:21:33;100751.69;;;12.02;64.26
84055;BME280;74141;51.504;7.122;2024-02-21T12:24:32;100743.63;;;12.24;64.41
84055;BME280;74141;51.504;7.122;2024-02-21T12:26:57;100733.22;;;12.21;64.88
84055;BME280;74141;51.504;7.122;2024-02-21T12:29:24;100726.28;;;12.37;64.05
84055;BME280;74141;51.504;7.122;2024-02-21T12:31:50;100721.78;;;12.02;64.27
84055;BME280;74141;51.504;7.122;2024-02-21T12:34:15;100707.81;;;12.18;64.00
84055;BME280;74141;51.504;7.122;2024-02-21T12:36:41;100703.94;;;12.07;63.65
84055;BME280;74141;51.504;7.122;2024-02-21T12:39:08;100707.50;;;12.06;64.07
84055;BME280;74141;51.504;7.122;2024-02-21T12:41:34;100700.59;;;12.03;63.50
84055;BME280;74141;51.504;7.122;2024-02-21T12:44:01;100684.03;;;12.18;63.33
84055;BME280;74141;51.504;7.122;2024-02-21T12:46:28;100695.66;;;12.14;63.16
84055;BME280;74141;51.504;7.122;2024-02-21T12:48:53;100693.16;;;12.30;62.68
84055;BME280;74141;51.504;7.122;2024-02-21T12:51:19;100694.28;;;12.43;62.59
84055;BME280;74141;51.504;7.122;2024-02-21T12:53:47;100697.38;;;12.53;61.74
84055;BME280;74141;51.504;7.122;2024-02-21T12:56:15;100679.53;;;12.39;61.88